La rose des vents
Donnes mto: Semaine 17/09/07 - 23/09/07 (S 38)
Date Horaire Temp. E. Hum. E. P.atmo. Pluie Vent 1mn Direction Ensoleilleme Ev.Tr. Solaire P. de rose Temp au vent Rafales
17/09/2007 00:00 18,9 C 94 % 1017,3 hPa 0,0 l/m 1,1 km/h (1 Bft) O-NO 0,00 h 0,025 mm 0 W/m 18,0 C 18,9 C 2,1 km/h (1 Bft)
17/09/2007 01:00 18,7 C 94 % 1017,1 hPa 0,0 l/m 2,3 km/h (1 Bft) O-NO 0,00 h 0,000 mm 0 W/m 17,7 C 18,7 C 3,3 km/h (1 Bft)
17/09/2007 02:00 18,5 C 93 % 1016,4 hPa 0,0 l/m 5,8 km/h (2 Bft) O 0,00 h 0,025 mm 0 W/m 17,4 C 18,5 C 7,5 km/h (2 Bft)
17/09/2007 03:00 18,1 C 91 % 1016,2 hPa 0,0 l/m 8,0 km/h (2 Bft) O 0,00 h 0,025 mm 0 W/m 16,7 C 18,1 C 10,6 km/h (2 Bft)
17/09/2007 04:00 17,9 C 87 % 1016,0 hPa 0,0 l/m 6,5 km/h (2 Bft) O-NO 0,00 h 0,025 mm 0 W/m 15,8 C 17,9 C 8,7 km/h (2 Bft)
17/09/2007 05:00 17,8 C 85 % 1015,8 hPa 0,0 l/m 2,9 km/h (1 Bft) NO 0,00 h 0,025 mm 0 W/m 15,2 C 17,8 C 4,8 km/h (1 Bft)
17/09/2007 06:00 17,5 C 84 % 1015,4 hPa 0,0 l/m 5,0 km/h (1 Bft) O-NO 0,00 h 0,025 mm 0 W/m 14,8 C 17,5 C 7,5 km/h (2 Bft)
17/09/2007 07:00 17,6 C 85 % 1015,6 hPa 0,0 l/m 3,0 km/h (1 Bft) NO 0,03 h 0,025 mm 22 W/m 15,0 C 17,6 C 4,9 km/h (1 Bft)
17/09/2007 08:00 18,7 C 83 % 1015,9 hPa 0,0 l/m 0,0 km/h (0 Bft) N 0,35 h 0,025 mm 106 W/m 15,7 C 18,7 C 0,1 km/h (0 Bft)
17/09/2007 09:00 22,0 C 70 % 1015,6 hPa 0,0 l/m 1,7 km/h (1 Bft) E 1,00 h 0,076 mm 303 W/m 16,2 C 22,0 C 3,3 km/h (1 Bft)
17/09/2007 10:00 24,3 C 63 % 1015,7 hPa 0,0 l/m 3,5 km/h (1 Bft) E-SE 1,00 h 0,203 mm 454 W/m 16,8 C 24,3 C 6,0 km/h (2 Bft)
17/09/2007 11:00 25,5 C 65 % 1015,4 hPa 0,0 l/m 8,6 km/h (2 Bft) E 1,00 h 0,305 mm 576 W/m 18,4 C 25,5 C 12,4 km/h (3 Bft)
17/09/2007 12:00 26,8 C 59 % 1014,9 hPa 0,0 l/m 9,6 km/h (2 Bft) E 1,00 h 0,406 mm 655 W/m 18,1 C 26,8 C 13,7 km/h (3 Bft)
17/09/2007 13:00 27,5 C 52 % 1014,6 hPa 0,0 l/m 11,2 km/h (2 Bft) S-SE 1,00 h 0,483 mm 683 W/m 16,7 C 27,5 C 17,7 km/h (3 Bft)
17/09/2007 14:00 26,2 C 53 % 1014,6 hPa 0,0 l/m 13,4 km/h (3 Bft) S-SE 1,00 h 0,533 mm 649 W/m 15,7 C 26,2 C 19,6 km/h (3 Bft)
17/09/2007 15:00 25,7 C 59 % 1014,3 hPa 0,0 l/m 9,0 km/h (2 Bft) S-SE 0,87 h 0,508 mm 525 W/m 17,0 C 25,7 C 13,7 km/h (3 Bft)
17/09/2007 16:00 25,9 C 60 % 1014,1 hPa 0,0 l/m 7,2 km/h (2 Bft) E-SE 0,95 h 0,406 mm 427 W/m 17,6 C 25,9 C 12,1 km/h (2 Bft)
17/09/2007 17:00 24,2 C 65 % 1013,8 hPa 0,0 l/m 6,0 km/h (2 Bft) S-SE 1,00 h 0,330 mm 279 W/m 17,2 C 24,2 C 10,4 km/h (2 Bft)
17/09/2007 18:00 23,3 C 71 % 1013,4 hPa 0,0 l/m 3,4 km/h (1 Bft) E-SE 0,65 h 0,203 mm 121 W/m 17,7 C 23,3 C 5,7 km/h (1 Bft)
17/09/2007 19:00 20,7 C 82 % 1012,8 hPa 0,0 l/m 2,6 km/h (1 Bft) E-SE 0,00 h 0,102 mm 17 W/m 17,4 C 20,7 C 4,5 km/h (1 Bft)
17/09/2007 20:00 19,5 C 87 % 1012,9 hPa 0,0 l/m 0,2 km/h (0 Bft) E-SE 0,00 h 0,025 mm 0 W/m 17,2 C 19,5 C 0,8 km/h (0 Bft)
17/09/2007 21:00 19,5 C 87 % 1013,1 hPa 0,0 l/m 0,6 km/h (0 Bft) E-SE 0,00 h 0,025 mm 0 W/m 17,4 C 19,5 C 1,6 km/h (1 Bft)
17/09/2007 22:00 19,2 C 89 % 1013,5 hPa 0,2 l/m 1,6 km/h (1 Bft) E-SE 0,00 h 0,025 mm 0 W/m 17,3 C 19,2 C 2,7 km/h (1 Bft)
17/09/2007 23:00 19,0 C 90 % 1013,2 hPa 1,0 l/m 1,7 km/h (1 Bft) NO 0,00 h 0,025 mm 0 W/m 17,3 C 19,0 C 3,4 km/h (1 Bft)
18/09/2007 00:00 18,5 C 92 % 1013,2 hPa 0,0 l/m 4,7 km/h (1 Bft) NO 0,00 h 0,025 mm 0 W/m 17,1 C 18,5 C 6,5 km/h (2 Bft)
18/09/2007 01:00 17,7 C 93 % 1011,7 hPa 0,0 l/m 1,5 km/h (1 Bft) NO 0,00 h 0,025 mm 0 W/m 16,5 C 17,7 C 2,9 km/h (1 Bft)
18/09/2007 02:00 17,9 C 94 % 1010,9 hPa 0,0 l/m 7,3 km/h (2 Bft) SO 0,00 h 0,025 mm 0 W/m 16,8 C 17,9 C 9,6 km/h (2 Bft)
18/09/2007 03:00 17,6 C 94 % 1010,3 hPa 0,0 l/m 9,0 km/h (2 Bft) O-SO 0,00 h 0,025 mm 0 W/m 16,6 C 17,6 C 12,2 km/h (2 Bft)
18/09/2007 04:00 17,4 C 94 % 1009,6 hPa 0,0 l/m 9,8 km/h (2 Bft) O-SO 0,00 h 0,025 mm 0 W/m 16,4 C 17,4 C 13,9 km/h (3 Bft)
18/09/2007 05:00 17,0 C 94 % 1009,1 hPa 0,0 l/m 3,8 km/h (1 Bft) NO 0,00 h 0,025 mm 0 W/m 16,0 C 17,0 C 5,9 km/h (2 Bft)
18/09/2007 06:00 16,7 C 94 % 1008,9 hPa 0,0 l/m 8,6 km/h (2 Bft) O-NO 0,00 h 0,025 mm 0 W/m 15,7 C 16,7 C 11,6 km/h (2 Bft)
18/09/2007 07:00 16,0 C 94 % 1008,9 hPa 0,2 l/m 1,7 km/h (1 Bft) O-NO 0,03 h 0,025 mm 19 W/m 15,0 C 16,0 C 2,8 km/h (1 Bft)
18/09/2007 08:00 17,2 C 93 % 1008,8 hPa 0,0 l/m 2,7 km/h (1 Bft) O 0,35 h 0,000 mm 103 W/m 15,9 C 17,2 C 4,5 km/h (1 Bft)
18/09/2007 09:00 20,8 C 75 % 1008,4 hPa 0,0 l/m 2,8 km/h (1 Bft) O-NO 1,00 h 0,076 mm 326 W/m 16,2 C 20,8 C 5,4 km/h (1 Bft)
18/09/2007 10:00 24,3 C 57 % 1008,2 hPa 0,0 l/m 15,4 km/h (3 Bft) O-SO 1,00 h 0,203 mm 482 W/m 15,1 C 24,3 C 20,9 km/h (4 Bft)
18/09/2007 11:00 27,3 C 37 % 1007,4 hPa 0,0 l/m 26,6 km/h (4 Bft) O-SO 1,00 h 0,406 mm 607 W/m 11,2 C 27,3 C 36,3 km/h (5 Bft)
18/09/2007 12:00 28,3 C 30 % 1007,1 hPa 0,0 l/m 26,6 km/h (4 Bft) O-SO 1,00 h 0,686 mm 686 W/m 9,1 C 28,3 C 38,9 km/h (6 Bft)
18/09/2007 13:00 28,9 C 30 % 1006,6 hPa 0,0 l/m 23,4 km/h (4 Bft) O 1,00 h 0,762 mm 707 W/m 9,4 C 28,9 C 34,7 km/h (5 Bft)
18/09/2007 14:00 29,0 C 29 % 1006,4 hPa 0,0 l/m 25,1 km/h (4 Bft) O 1,00 h 0,737 mm 676 W/m 8,9 C 29,0 C 35,8 km/h (5 Bft)
18/09/2007 15:00 29,1 C 26 % 1006,0 hPa 0,0 l/m 30,4 km/h (5 Bft) O-SO 1,00 h 0,762 mm 600 W/m 7,4 C 29,1 C 43,5 km/h (6 Bft)
18/09/2007 16:00 28,6 C 24 % 1005,7 hPa 0,0 l/m 25,1 km/h (4 Bft) O-SO 1,00 h 0,787 mm 484 W/m 6,0 C 28,6 C 35,6 km/h (5 Bft)
18/09/2007 17:00 27,6 C 25 % 1005,4 hPa 0,0 l/m 20,9 km/h (4 Bft) O-SO 1,00 h 0,635 mm 328 W/m 5,6 C 27,6 C 28,8 km/h (5 Bft)
18/09/2007 18:00 26,2 C 27 % 1005,2 hPa 0,0 l/m 19,1 km/h (3 Bft) O-SO 0,97 h 0,483 mm 156 W/m 5,8 C 26,2 C 26,4 km/h (4 Bft)
18/09/2007 19:00 23,1 C 32 % 1005,3 hPa 0,0 l/m 23,2 km/h (4 Bft) O-SO 0,02 h 0,330 mm 13 W/m 5,3 C 23,1 C 31,2 km/h (5 Bft)
18/09/2007 20:00 21,0 C 35 % 1005,7 hPa 0,0 l/m 18,6 km/h (3 Bft) O-SO 0,00 h 0,254 mm 0 W/m 5,0 C 21,0 C 24,6 km/h (4 Bft)
18/09/2007 21:00 19,8 C 37 % 1006,7 hPa 0,0 l/m 9,2 km/h (2 Bft) O 0,00 h 0,178 mm 0 W/m 4,7 C 19,8 C 12,8 km/h (3 Bft)
18/09/2007 22:00 19,1 C 39 % 1007,6 hPa 0,0 l/m 3,8 km/h (1 Bft) S-SO 0,00 h 0,127 mm 0 W/m 4,9 C 19,1 C 5,7 km/h (1 Bft)
18/09/2007 23:00 19,4 C 38 % 1008,4 hPa 0,0 l/m 1,5 km/h (1 Bft) NE 0,00 h 0,076 mm 0 W/m 4,7 C 19,4 C 3,6 km/h (1 Bft)
19/09/2007 00:00 19,5 C 43 % 1009,0 hPa 0,0 l/m 3,3 km/h (1 Bft) O-NO 0,00 h 0,076 mm 0 W/m 6,4 C 19,5 C 5,0 km/h (1 Bft)
19/09/2007 01:00 19,2 C 55 % 1009,4 hPa 0,0 l/m 8,0 km/h (2 Bft) O 0,00 h 0,076 mm 0 W/m 9,8 C 19,2 C 11,5 km/h (2 Bft)
19/09/2007 02:00 18,7 C 55 % 1009,9 hPa 0,0 l/m 10,8 km/h (2 Bft) O 0,00 h 0,076 mm 0 W/m 9,3 C 18,7 C 16,3 km/h (3 Bft)
19/09/2007 03:00 18,0 C 58 % 1010,1 hPa 0,0 l/m 14,8 km/h (3 Bft) O 0,00 h 0,102 mm 0 W/m 9,7 C 18,0 C 20,7 km/h (4 Bft)
19/09/2007 04:00 17,5 C 57 % 1010,4 hPa 0,0 l/m 13,2 km/h (3 Bft) O-SO 0,00 h 0,102 mm 0 W/m 8,8 C 17,5 C 18,4 km/h (3 Bft)
19/09/2007 05:00 15,4 C 59 % 1011,1 hPa 0,0 l/m 14,5 km/h (3 Bft) O 0,00 h 0,102 mm 0 W/m 7,5 C 15,4 C 21,1 km/h (4 Bft)
19/09/2007 06:00 15,1 C 61 % 1012,1 hPa 0,0 l/m 7,2 km/h (2 Bft) O 0,00 h 0,102 mm 0 W/m 7,7 C 15,1 C 9,9 km/h (2 Bft)
19/09/2007 07:00 15,1 C 61 % 1012,9 hPa 0,0 l/m 5,6 km/h (1 Bft) O-NO 0,02 h 0,051 mm 17 W/m 7,6 C 15,1 C 8,1 km/h (2 Bft)
19/09/2007 08:00 16,9 C 57 % 1013,6 hPa 0,0 l/m 1,5 km/h (1 Bft) O 0,35 h 0,051 mm 106 W/m 8,2 C 16,9 C 2,6 km/h (1 Bft)
19/09/2007 09:00 20,7 C 44 % 1014,3 hPa 0,0 l/m 2,2 km/h (1 Bft) E 1,00 h 0,076 mm 323 W/m 8,1 C 20,7 C 4,3 km/h (1 Bft)
19/09/2007 10:00 22,3 C 38 % 1015,0 hPa 0,0 l/m 7,3 km/h (2 Bft) O-SO 1,00 h 0,229 mm 480 W/m 7,2 C 22,3 C 11,1 km/h (2 Bft)
19/09/2007 11:00 23,4 C 34 % 1015,2 hPa 0,0 l/m 9,0 km/h (2 Bft) O-SO 1,00 h 0,356 mm 604 W/m 6,5 C 23,4 C 13,4 km/h (3 Bft)
19/09/2007 12:00 24,5 C 36 % 1015,2 hPa 0,0 l/m 11,5 km/h (2 Bft) S-SO 1,00 h 0,457 mm 682 W/m 8,5 C 24,5 C 17,1 km/h (3 Bft)
19/09/2007 13:00 24,0 C 41 % 1015,2 hPa 0,0 l/m 18,2 km/h (3 Bft) S 0,72 h 0,559 mm 601 W/m 9,8 C 24,0 C 24,6 km/h (4 Bft)
19/09/2007 14:00 23,8 C 43 % 1015,6 hPa 0,0 l/m 18,2 km/h (3 Bft) S-SE 0,95 h 0,533 mm 704 W/m 10,5 C 23,8 C 24,9 km/h (4 Bft)
19/09/2007 15:00 23,1 C 44 % 1015,9 hPa 0,0 l/m 14,8 km/h (3 Bft) S 1,00 h 0,584 mm 584 W/m 10,3 C 23,1 C 21,0 km/h (4 Bft)
19/09/2007 16:00 22,9 C 42 % 1016,0 hPa 0,0 l/m 9,1 km/h (2 Bft) S-SE 1,00 h 0,483 mm 456 W/m 9,4 C 22,9 C 14,5 km/h (3 Bft)
19/09/2007 17:00 22,5 C 42 % 1016,2 hPa 0,0 l/m 10,7 km/h (2 Bft) S 1,00 h 0,356 mm 297 W/m 9,1 C 22,5 C 15,8 km/h (3 Bft)
19/09/2007 18:00 21,7 C 49 % 1016,5 hPa 0,0 l/m 10,1 km/h (2 Bft) S-SO 0,95 h 0,279 mm 132 W/m 10,5 C 21,7 C 13,8 km/h (3 Bft)
19/09/2007 19:00 19,5 C 56 % 1016,8 hPa 0,0 l/m 6,9 km/h (2 Bft) SO 0,03 h 0,152 mm 15 W/m 10,6 C 19,5 C 9,1 km/h (2 Bft)
19/09/2007 20:00 18,2 C 59 % 1017,2 hPa 0,0 l/m 7,0 km/h (2 Bft) O 0,00 h 0,051 mm 0 W/m 10,0 C 18,2 C 9,5 km/h (2 Bft)
19/09/2007 21:00 17,7 C 59 % 1017,8 hPa 0,0 l/m 9,1 km/h (2 Bft) O-NO 0,00 h 0,076 mm 0 W/m 9,5 C 17,7 C 12,3 km/h (3 Bft)
19/09/2007 22:00 17,4 C 59 % 1018,2 hPa 0,0 l/m 10,7 km/h (2 Bft) O-NO 0,00 h 0,076 mm 0 W/m 9,4 C 17,4 C 14,5 km/h (3 Bft)
19/09/2007 23:00 17,4 C 56 % 1018,4 hPa 0,0 l/m 12,9 km/h (3 Bft) O-NO 0,00 h 0,076 mm 0 W/m 8,6 C 17,4 C 17,0 km/h (3 Bft)
20/09/2007 00:00 16,7 C 59 % 1018,5 hPa 0,0 l/m 9,1 km/h (2 Bft) O-NO 0,00 h 0,102 mm 0 W/m 8,6 C 16,7 C 12,8 km/h (3 Bft)
20/09/2007 01:00 16,2 C 60 % 1018,6 hPa 0,0 l/m 7,3 km/h (2 Bft) O-NO 0,00 h 0,076 mm 0 W/m 8,5 C 16,2 C 10,8 km/h (2 Bft)
20/09/2007 02:00 15,6 C 60 % 1019,1 hPa 0,0 l/m 3,8 km/h (1 Bft) NO 0,00 h 0,076 mm 0 W/m 7,9 C 15,6 C 5,8 km/h (2 Bft)
20/09/2007 03:00 15,6 C 59 % 1019,3 hPa 0,0 l/m 3,8 km/h (1 Bft) O-NO 0,00 h 0,051 mm 0 W/m 7,5 C 15,6 C 6,8 km/h (2 Bft)
20/09/2007 04:00 15,3 C 59 % 1019,4 hPa 0,0 l/m 3,6 km/h (1 Bft) O-NO 0,00 h 0,051 mm 0 W/m 7,3 C 15,3 C 6,3 km/h (2 Bft)
20/09/2007 05:00 14,9 C 60 % 1019,7 hPa 0,0 l/m 4,6 km/h (1 Bft) NO 0,00 h 0,051 mm 0 W/m 7,3 C 14,9 C 6,5 km/h (2 Bft)
20/09/2007 06:00 15,0 C 58 % 1019,8 hPa 0,0 l/m 4,5 km/h (1 Bft) NO 0,00 h 0,051 mm 0 W/m 6,9 C 15,0 C 6,5 km/h (2 Bft)
20/09/2007 07:00 15,0 C 58 % 1020,0 hPa 0,0 l/m 3,8 km/h (1 Bft) O-NO 0,03 h 0,025 mm 16 W/m 6,7 C 15,0 C 6,2 km/h (2 Bft)
20/09/2007 08:00 16,9 C 52 % 1020,6 hPa 0,0 l/m 1,1 km/h (1 Bft) O-NO 0,47 h 0,025 mm 114 W/m 7,0 C 16,9 C 2,5 km/h (1 Bft)
20/09/2007 09:00 20,3 C 46 % 1021,0 hPa 0,0 l/m 4,3 km/h (1 Bft) E-NE 1,00 h 0,076 mm 324 W/m 8,3 C 20,3 C 6,7 km/h (2 Bft)
20/09/2007 10:00 22,2 C 46 % 1021,3 hPa 0,0 l/m 7,8 km/h (2 Bft) E-NE 1,00 h 0,229 mm 478 W/m 10,0 C 22,2 C 12,1 km/h (2 Bft)
20/09/2007 11:00 23,2 C 37 % 1021,5 hPa 0,0 l/m 10,4 km/h (2 Bft) E 1,00 h 0,356 mm 590 W/m 7,8 C 23,2 C 17,2 km/h (3 Bft)
20/09/2007 12:00 23,3 C 43 % 1021,5 hPa 0,0 l/m 11,0 km/h (2 Bft) E 1,00 h 0,457 mm 671 W/m 10,0 C 23,3 C 17,9 km/h (3 Bft)
20/09/2007 13:00 23,2 C 49 % 1021,5 hPa 0,0 l/m 12,0 km/h (2 Bft) E 1,00 h 0,508 mm 697 W/m 11,8 C 23,2 C 18,8 km/h (3 Bft)
20/09/2007 14:00 23,4 C 49 % 1021,2 hPa 0,0 l/m 10,4 km/h (2 Bft) E 1,00 h 0,533 mm 671 W/m 12,1 C 23,4 C 16,5 km/h (3 Bft)
20/09/2007 15:00 23,0 C 49 % 1020,9 hPa 0,0 l/m 9,0 km/h (2 Bft) E 1,00 h 0,483 mm 576 W/m 11,8 C 23,0 C 14,5 km/h (3 Bft)
20/09/2007 16:00 22,4 C 51 % 1020,9 hPa 0,0 l/m 8,9 km/h (2 Bft) E 0,77 h 0,432 mm 382 W/m 11,6 C 22,4 C 14,5 km/h (3 Bft)
20/09/2007 17:00 21,6 C 53 % 1021,1 hPa 0,0 l/m 5,2 km/h (1 Bft) E 0,93 h 0,305 mm 276 W/m 11,5 C 21,6 C 9,2 km/h (2 Bft)
20/09/2007 18:00 20,4 C 58 % 1021,3 hPa 0,0 l/m 3,1 km/h (1 Bft) E-SE 0,47 h 0,203 mm 105 W/m 11,7 C 20,4 C 5,8 km/h (2 Bft)
20/09/2007 19:00 18,7 C 63 % 1021,5 hPa 0,0 l/m 0,5 km/h (0 Bft) E-SE 0,02 h 0,076 mm 15 W/m 11,6 C 18,7 C 1,3 km/h (1 Bft)
20/09/2007 20:00 17,4 C 68 % 1021,8 hPa 0,0 l/m 1,0 km/h (0 Bft) E-SE 0,00 h 0,025 mm 0 W/m 11,5 C 17,4 C 2,5 km/h (1 Bft)
20/09/2007 21:00 16,4 C 71 % 1022,0 hPa 0,0 l/m 3,8 km/h (1 Bft) NO 0,00 h 0,025 mm 0 W/m 11,1 C 16,4 C 6,0 km/h (2 Bft)
20/09/2007 22:00 16,0 C 72 % 1022,2 hPa 0,0 l/m 2,7 km/h (1 Bft) O-NO 0,00 h 0,051 mm 0 W/m 10,9 C 16,0 C 5,0 km/h (1 Bft)
20/09/2007 23:00 15,4 C 72 % 1022,4 hPa 0,0 l/m 2,7 km/h (1 Bft) NO 0,00 h 0,025 mm 0 W/m 10,4 C 15,4 C 5,3 km/h (1 Bft)
21/09/2007 00:00 15,5 C 70 % 1022,5 hPa 0,0 l/m 3,8 km/h (1 Bft) NO 0,00 h 0,025 mm 0 W/m 10,0 C 15,5 C 6,6 km/h (2 Bft)
21/09/2007 01:00 15,6 C 69 % 1022,4 hPa 0,0 l/m 3,8 km/h (1 Bft) O-NO 0,00 h 0,051 mm 0 W/m 9,9 C 15,6 C 5,7 km/h (1 Bft)
21/09/2007 02:00 15,3 C 68 % 1022,2 hPa 0,0 l/m 4,1 km/h (1 Bft) O-NO 0,00 h 0,051 mm 0 W/m 9,5 C 15,3 C 6,2 km/h (2 Bft)
21/09/2007 03:00 15,6 C 67 % 1021,9 hPa 0,0 l/m 4,0 km/h (1 Bft) NO 0,00 h 0,051 mm 0 W/m 9,6 C 15,6 C 6,2 km/h (2 Bft)
21/09/2007 04:00 15,1 C 69 % 1022,0 hPa 0,0 l/m 1,4 km/h (1 Bft) NO 0,00 h 0,051 mm 0 W/m 9,4 C 15,1 C 2,4 km/h (1 Bft)
21/09/2007 05:00 14,5 C 72 % 1022,2 hPa 0,0 l/m 2,0 km/h (1 Bft) N-NO 0,00 h 0,025 mm 0 W/m 9,5 C 14,5 C 3,9 km/h (1 Bft)
21/09/2007 06:00 14,6 C 70 % 1022,5 hPa 0,0 l/m 2,2 km/h (1 Bft) NO 0,00 h 0,025 mm 0 W/m 9,3 C 14,6 C 3,8 km/h (1 Bft)
21/09/2007 07:00 14,4 C 71 % 1022,7 hPa 0,0 l/m 3,3 km/h (1 Bft) NO 0,03 h 0,025 mm 16 W/m 9,1 C 14,4 C 5,7 km/h (1 Bft)
21/09/2007 08:00 16,3 C 64 % 1022,9 hPa 0,0 l/m 3,5 km/h (1 Bft) NO 0,47 h 0,025 mm 111 W/m 9,5 C 16,3 C 6,0 km/h (2 Bft)
21/09/2007 09:00 19,7 C 54 % 1023,1 hPa 0,0 l/m 0,2 km/h (0 Bft) NO 1,00 h 0,076 mm 309 W/m 10,2 C 19,7 C 1,5 km/h (1 Bft)
21/09/2007 10:00 21,9 C 48 % 1023,5 hPa 0,0 l/m 4,1 km/h (1 Bft) S 1,00 h 0,178 mm 462 W/m 10,4 C 21,9 C 7,0 km/h (2 Bft)
21/09/2007 11:00 23,4 C 45 % 1023,5 hPa 0,0 l/m 6,6 km/h (2 Bft) SO 1,00 h 0,305 mm 575 W/m 10,7 C 23,4 C 10,9 km/h (2 Bft)
21/09/2007 12:00 23,7 C 43 % 1023,2 hPa 0,0 l/m 11,9 km/h (2 Bft) S 1,00 h 0,406 mm 657 W/m 10,5 C 23,7 C 17,6 km/h (3 Bft)
21/09/2007 13:00 23,7 C 48 % 1022,9 hPa 0,0 l/m 13,7 km/h (3 Bft) S 1,00 h 0,508 mm 671 W/m 12,0 C 23,7 C 19,5 km/h (3 Bft)
21/09/2007 14:00 23,6 C 51 % 1022,5 hPa 0,0 l/m 10,1 km/h (2 Bft) S-SE 1,00 h 0,533 mm 626 W/m 12,7 C 23,6 C 15,9 km/h (3 Bft)
21/09/2007 15:00 23,8 C 53 % 1022,0 hPa 0,0 l/m 9,1 km/h (2 Bft) E 1,00 h 0,457 mm 567 W/m 13,6 C 23,8 C 14,8 km/h (3 Bft)
21/09/2007 16:00 23,4 C 57 % 1021,5 hPa 0,0 l/m 8,0 km/h (2 Bft) S-SE 1,00 h 0,432 mm 441 W/m 14,4 C 23,4 C 12,9 km/h (3 Bft)
21/09/2007 17:00 22,2 C 53 % 1021,7 hPa 0,0 l/m 12,5 km/h (3 Bft) S 1,00 h 0,330 mm 272 W/m 12,3 C 22,2 C 17,2 km/h (3 Bft)
21/09/2007 18:00 21,0 C 61 % 1021,9 hPa 0,0 l/m 5,6 km/h (1 Bft) S-SE 0,80 h 0,254 mm 112 W/m 13,3 C 21,0 C 8,5 km/h (2 Bft)
21/09/2007 19:00 19,2 C 69 % 1022,0 hPa 0,0 l/m 0,4 km/h (0 Bft) S-SE 0,05 h 0,102 mm 16 W/m 13,4 C 19,2 C 1,4 km/h (1 Bft)
21/09/2007 20:00 17,9 C 77 % 1022,1 hPa 0,0 l/m 0,0 km/h (0 Bft) S-SE 0,00 h 0,025 mm 0 W/m 13,8 C 17,9 C 0,4 km/h (0 Bft)
21/09/2007 21:00 17,3 C 79 % 1022,3 hPa 0,0 l/m 4,2 km/h (1 Bft) O 0,00 h 0,025 mm 0 W/m 13,6 C 17,3 C 5,4 km/h (1 Bft)
21/09/2007 22:00 16,8 C 80 % 1022,2 hPa 0,0 l/m 5,4 km/h (1 Bft) O 0,00 h 0,025 mm 0 W/m 13,3 C 16,8 C 7,3 km/h (2 Bft)
21/09/2007 23:00 16,3 C 80 % 1021,9 hPa 0,0 l/m 5,8 km/h (2 Bft) O-NO 0,00 h 0,025 mm 0 W/m 12,8 C 16,3 C 8,1 km/h (2 Bft)
22/09/2007 00:00 15,9 C 79 % 1022,1 hPa 0,0 l/m 2,8 km/h (1 Bft) O-NO 0,00 h 0,025 mm 0 W/m 12,3 C 15,9 C 4,1 km/h (1 Bft)
22/09/2007 01:00 16,0 C 79 % 1021,9 hPa 0,0 l/m 3,5 km/h (1 Bft) O-NO 0,00 h 0,025 mm 0 W/m 12,4 C 16,0 C 5,3 km/h (1 Bft)
22/09/2007 02:00 16,1 C 76 % 1021,5 hPa 0,0 l/m 3,9 km/h (1 Bft) NO 0,00 h 0,025 mm 0 W/m 12,0 C 16,1 C 5,8 km/h (1 Bft)
22/09/2007 03:00 16,2 C 74 % 1021,5 hPa 0,0 l/m 5,0 km/h (1 Bft) O-NO 0,00 h 0,025 mm 0 W/m 11,4 C 16,2 C 7,9 km/h (2 Bft)
22/09/2007 04:00 16,2 C 71 % 1021,8 hPa 0,0 l/m 5,5 km/h (1 Bft) O-NO 0,00 h 0,051 mm 0 W/m 10,9 C 16,2 C 8,0 km/h (2 Bft)
22/09/2007 05:00 16,0 C 70 % 1021,8 hPa 0,0 l/m 4,8 km/h (1 Bft) NO 0,00 h 0,051 mm 0 W/m 10,6 C 16,0 C 7,2 km/h (2 Bft)
22/09/2007 06:00 16,3 C 68 % 1022,4 hPa 0,0 l/m 9,3 km/h (2 Bft) O-NO 0,00 h 0,051 mm 0 W/m 10,2 C 16,3 C 12,7 km/h (3 Bft)
22/09/2007 07:00 16,2 C 67 % 1021,8 hPa 0,0 l/m 3,9 km/h (1 Bft) NO 0,03 h 0,051 mm 18 W/m 10,1 C 16,2 C 6,0 km/h (2 Bft)
22/09/2007 08:00 17,9 C 62 % 1021,8 hPa 0,0 l/m 1,3 km/h (1 Bft) NO 0,55 h 0,025 mm 145 W/m 10,5 C 17,9 C 2,4 km/h (1 Bft)
22/09/2007 09:00 20,5 C 56 % 1021,8 hPa 0,0 l/m 0,3 km/h (0 Bft) SO 0,20 h 0,102 mm 199 W/m 11,3 C 20,5 C 0,9 km/h (0 Bft)
22/09/2007 10:00 22,3 C 49 % 1022,0 hPa 0,0 l/m 2,8 km/h (1 Bft) S 0,98 h 0,127 mm 388 W/m 10,9 C 22,3 C 4,8 km/h (1 Bft)
22/09/2007 11:00 24,2 C 44 % 1022,0 hPa 0,0 l/m 5,0 km/h (1 Bft) E-SE 0,95 h 0,254 mm 565 W/m 11,1 C 24,2 C 8,6 km/h (2 Bft)
22/09/2007 12:00 24,1 C 45 % 1021,9 hPa 0,0 l/m 8,3 km/h (2 Bft) S 0,63 h 0,406 mm 437 W/m 11,4 C 24,1 C 12,7 km/h (3 Bft)
22/09/2007 13:00 24,4 C 44 % 1021,7 hPa 0,0 l/m 9,8 km/h (2 Bft) S-SE 1,00 h 0,356 mm 656 W/m 11,5 C 24,4 C 15,2 km/h (3 Bft)
22/09/2007 14:00 24,6 C 44 % 1021,3 hPa 0,0 l/m 11,5 km/h (2 Bft) S-SE 1,00 h 0,508 mm 651 W/m 11,5 C 24,6 C 17,7 km/h (3 Bft)
22/09/2007 15:00 24,6 C 44 % 1021,2 hPa 0,0 l/m 9,9 km/h (2 Bft) S 1,00 h 0,508 mm 562 W/m 11,4 C 24,6 C 15,9 km/h (3 Bft)
22/09/2007 16:00 23,6 C 47 % 1020,9 hPa 0,0 l/m 11,7 km/h (2 Bft) S 0,43 h 0,432 mm 317 W/m 11,5 C 23,6 C 16,4 km/h (3 Bft)
22/09/2007 17:00 23,0 C 48 % 1020,6 hPa 0,0 l/m 8,3 km/h (2 Bft) S-SE 0,92 h 0,305 mm 266 W/m 11,3 C 23,0 C 12,4 km/h (3 Bft)
22/09/2007 18:00 21,6 C 54 % 1020,8 hPa 0,0 l/m 5,6 km/h (1 Bft) S-SE 0,17 h 0,229 mm 64 W/m 11,8 C 21,6 C 8,2 km/h (2 Bft)
22/09/2007 19:00 19,9 C 64 % 1020,9 hPa 0,0 l/m 1,9 km/h (1 Bft) S-SE 0,05 h 0,076 mm 15 W/m 12,8 C 19,9 C 3,5 km/h (1 Bft)
22/09/2007 20:00 18,5 C 69 % 1021,0 hPa 0,0 l/m 0,5 km/h (0 Bft) S-SE 0,00 h 0,025 mm 0 W/m 12,7 C 18,5 C 1,3 km/h (1 Bft)
22/09/2007 21:00 17,9 C 71 % 1021,3 hPa 0,0 l/m 0,9 km/h (0 Bft) O 0,00 h 0,025 mm 0 W/m 12,5 C 17,9 C 1,9 km/h (1 Bft)
22/09/2007 22:00 17,1 C 71 % 1021,3 hPa 0,0 l/m 2,1 km/h (1 Bft) NO 0,00 h 0,025 mm 0 W/m 11,8 C 17,1 C 3,5 km/h (1 Bft)
22/09/2007 23:00 16,7 C 73 % 1021,2 hPa 0,0 l/m 1,5 km/h (1 Bft) NO 0,00 h 0,025 mm 0 W/m 11,7 C 16,7 C 2,7 km/h (1 Bft)
23/09/2007 00:00 16,9 C 69 % 1021,1 hPa 0,0 l/m 5,4 km/h (1 Bft) O 0,00 h 0,025 mm 0 W/m 11,2 C 16,9 C 6,8 km/h (2 Bft)
23/09/2007 01:00 17,0 C 66 % 1021,1 hPa 0,0 l/m 4,3 km/h (1 Bft) O-NO 0,00 h 0,051 mm 0 W/m 10,6 C 17,0 C 5,8 km/h (1 Bft)
23/09/2007 02:00 16,5 C 67 % 1021,2 hPa 0,0 l/m 3,9 km/h (1 Bft) O-NO 0,00 h 0,051 mm 0 W/m 10,5 C 16,5 C 5,3 km/h (1 Bft)
23/09/2007 03:00 16,6 C 66 % 1020,9 hPa 0,0 l/m 3,9 km/h (1 Bft) O-NO 0,00 h 0,051 mm 0 W/m 10,3 C 16,6 C 5,8 km/h (1 Bft)
23/09/2007 04:00 16,6 C 67 % 1020,8 hPa 0,0 l/m 4,1 km/h (1 Bft) O-NO 0,00 h 0,051 mm 0 W/m 10,4 C 16,6 C 6,5 km/h (2 Bft)
23/09/2007 05:00 16,5 C 66 % 1020,8 hPa 0,0 l/m 4,6 km/h (1 Bft) O-NO 0,00 h 0,051 mm 0 W/m 10,1 C 16,5 C 7,3 km/h (2 Bft)
23/09/2007 06:00 16,3 C 66 % 1020,5 hPa 0,0 l/m 3,3 km/h (1 Bft) NO 0,00 h 0,051 mm 0 W/m 10,0 C 16,3 C 5,4 km/h (1 Bft)
23/09/2007 07:00 17,0 C 63 % 1020,5 hPa 0,0 l/m 3,1 km/h (1 Bft) NO 0,00 h 0,025 mm 15 W/m 9,9 C 17,0 C 4,8 km/h (1 Bft)
23/09/2007 08:00 17,8 C 61 % 1020,9 hPa 0,0 l/m 0,8 km/h (0 Bft) NO 0,00 h 0,025 mm 66 W/m 10,2 C 17,8 C 1,7 km/h (1 Bft)
23/09/2007 09:00 20,0 C 55 % 1021,3 hPa 0,0 l/m 1,2 km/h (1 Bft) NO 0,45 h 0,051 mm 237 W/m 10,6 C 20,0 C 3,1 km/h (1 Bft)
23/09/2007 10:00 22,5 C 48 % 1021,3 hPa 0,0 l/m 4,5 km/h (1 Bft) E 0,83 h 0,152 mm 424 W/m 11,0 C 22,5 C 7,5 km/h (2 Bft)
23/09/2007 11:00 24,3 C 46 % 1021,2 hPa 0,0 l/m 6,5 km/h (2 Bft) E 1,00 h 0,305 mm 587 W/m 11,9 C 24,3 C 10,7 km/h (2 Bft)
23/09/2007 12:00 24,7 C 50 % 1021,2 hPa 0,0 l/m 8,1 km/h (2 Bft) E 0,90 h 0,432 mm 646 W/m 13,5 C 24,7 C 13,1 km/h (3 Bft)
23/09/2007 13:00 24,9 C 50 % 1020,8 hPa 0,0 l/m 7,4 km/h (2 Bft) E 0,83 h 0,457 mm 578 W/m 13,6 C 24,9 C 11,6 km/h (2 Bft)
23/09/2007 14:00 25,7 C 47 % 1020,2 hPa 0,0 l/m 8,6 km/h (2 Bft) E 0,83 h 0,432 mm 637 W/m 13,6 C 25,7 C 13,6 km/h (3 Bft)
23/09/2007 15:00 23,2 C 54 % 1020,3 hPa 0,0 l/m 6,8 km/h (2 Bft) E 0,25 h 0,483 mm 252 W/m 13,3 C 23,2 C 11,2 km/h (2 Bft)
23/09/2007 16:00 23,1 C 54 % 1019,9 hPa 0,0 l/m 7,7 km/h (2 Bft) E-NE 0,10 h 0,203 mm 214 W/m 13,2 C 23,1 C 10,8 km/h (2 Bft)
23/09/2007 17:00 22,7 C 50 % 1019,7 hPa 0,0 l/m 3,4 km/h (1 Bft) E-NE 0,03 h 0,203 mm 130 W/m 11,7 C 22,7 C 5,2 km/h (1 Bft)
23/09/2007 18:00 22,1 C 46 % 1019,7 hPa 0,0 l/m 1,9 km/h (1 Bft) E-NE 0,00 h 0,102 mm 58 W/m 9,8 C 22,1 C 3,6 km/h (1 Bft)
23/09/2007 19:00 20,6 C 48 % 1019,7 hPa 0,0 l/m 2,0 km/h (1 Bft) E-NE 0,00 h 0,051 mm 10 W/m 9,1 C 20,6 C 3,7 km/h (1 Bft)
23/09/2007 20:00 19,8 C 50 % 1019,8 hPa 0,0 l/m 0,2 km/h (0 Bft) E-NE 0,00 h 0,025 mm 0 W/m 9,0 C 19,8 C 0,9 km/h (0 Bft)
23/09/2007 21:00 19,3 C 53 % 1020,1 hPa 0,0 l/m 1,3 km/h (1 Bft) NE 0,00 h 0,051 mm 0 W/m 9,6 C 19,3 C 2,4 km/h (1 Bft)
23/09/2007 22:00 19,5 C 56 % 1020,1 hPa 0,0 l/m 2,9 km/h (1 Bft) N 0,00 h 0,051 mm 0 W/m 10,5 C 19,5 C 4,2 km/h (1 Bft)
23/09/2007 23:00 18,8 C 57 % 1020,0 hPa 0,0 l/m 5,1 km/h (1 Bft) NO 0,00 h 0,051 mm 0 W/m 10,2 C 18,8 C 7,5 km/h (2 Bft)
Min-Date _ 21/09/07 18/09/07 18/09/07 - 17/09/07 - - - - 18/09/07 21/09/07 17/09/07
_ Min-Heure 07:36 16:12 18:15 - 00:05 - - - - 16:12 07:36 00:11
Minimum _ 14,1 C 21 % 1005,1 hPa - 0,0 km/h (0 Bft) - - - - 4,2 C 14,1 C 0,0 km/h (0 Bft)
Max-Date _ 18/09/07 18/09/07 21/09/07 17/09/07 18/09/07 - 17/09/07 18/09/07 23/09/07 17/09/07 18/09/07 18/09/07
_ Max-Heure 14:59 04:02 10:30 23:04 15:06 - 07:22 16:00 14:25 11:46 14:59 15:50
Maximum _ 29,6 C 95 % 1023,6 hPa 1,0 l/m 43,5 km/h
O-SO (6 Bft)
- 0,02 h 0,787 mm 886 W/m 19,3 C 29,6 C 59,5 km/h
O-SO (7 Bft)
Moyenne _ 20,0 C 60 % 1017,5 hPa #1,4 l/m 6,9 km/h (2 Bft) O-NO #63:25 h #31,102 mm 361 W/m 11,5 C 20,0 C 10,3 km/h (2 Bft)
Roquefort les pins